createdAt,value
2022-12-15T00:02:28.105Z,46.60
2022-12-15T00:05:14.134Z,48.50
2022-12-15T00:08:00.068Z,47.90
2022-12-15T00:10:46.281Z,44.97
2022-12-15T00:13:32.881Z,50.65
2022-12-15T00:16:19.394Z,50.55
2022-12-15T00:19:05.173Z,50.70
2022-12-15T00:21:51.221Z,52.15
2022-12-15T00:24:37.342Z,56.72
2022-12-15T00:27:23.598Z,52.65
2022-12-15T00:30:09.396Z,58.35
2022-12-15T00:32:55.146Z,57.00
2022-12-15T00:35:40.985Z,56.17
2022-12-15T00:38:31.755Z,63.13
2022-12-15T00:41:00.311Z,66.95
2022-12-15T00:43:29.286Z,67.97
2022-12-15T00:46:15.486Z,71.55
2022-12-15T00:48:43.065Z,55.33
2022-12-15T00:51:10.441Z,55.80
2022-12-15T00:53:56.527Z,56.30
2022-12-15T00:56:42.819Z,55.38
2022-12-15T00:59:28.623Z,54.72
2022-12-15T01:02:14.928Z,54.58
2022-12-15T01:05:00.701Z,54.35
2022-12-15T01:07:49.947Z,54.58
2022-12-15T01:10:37.465Z,53.45
2022-12-15T01:13:23.771Z,53.92
2022-12-15T01:16:09.675Z,57.10
2022-12-15T01:18:55.667Z,58.40
2022-12-15T01:21:25.001Z,63.50
2022-12-15T01:23:53.155Z,53.33
2022-12-15T01:26:20.573Z,53.72
2022-12-15T01:28:47.907Z,55.28
2022-12-15T01:31:15.271Z,47.88
2022-12-15T01:33:43.747Z,49.22
2022-12-15T01:36:11.270Z,52.50
2022-12-15T01:38:38.651Z,54.92
2022-12-15T01:41:08.010Z,51.45
2022-12-15T01:43:36.733Z,54.55
2022-12-15T01:46:04.143Z,53.00
2022-12-15T01:48:46.721Z,55.17
2022-12-15T01:51:35.532Z,53.95
2022-12-15T01:54:11.651Z,54.53
2022-12-15T01:56:44.838Z,51.00
2022-12-15T01:59:15.169Z,47.23
2022-12-15T02:01:42.588Z,52.05
2022-12-15T02:04:10.869Z,55.15
2022-12-15T02:06:38.199Z,55.25
2022-12-15T02:09:05.664Z,50.50
2022-12-15T02:11:32.944Z,52.72
2022-12-15T02:14:01.789Z,50.95
2022-12-15T02:16:52.539Z,52.65
2022-12-15T02:19:38.504Z,50.38
2022-12-15T02:22:27.381Z,53.00
2022-12-15T02:25:08.205Z,52.70
2022-12-15T02:28:03.478Z,51.40
2022-12-15T02:30:43.053Z,47.65
2022-12-15T02:33:14.974Z,52.38
2022-12-15T02:36:00.518Z,47.80
2022-12-15T02:38:38.434Z,53.00
2022-12-15T02:41:06.448Z,52.15
2022-12-15T02:43:35.632Z,51.80
2022-12-15T02:46:22.286Z,50.58
2022-12-15T02:49:15.520Z,50.20
2022-12-15T02:51:58.487Z,51.65
2022-12-15T02:54:48.610Z,52.40
2022-12-15T02:57:25.378Z,53.08
2022-12-15T03:00:07.667Z,57.30
2022-12-15T03:02:35.130Z,54.35
2022-12-15T03:05:02.607Z,50.83
2022-12-15T03:07:29.941Z,55.30
2022-12-15T03:09:58.869Z,53.20
2022-12-15T03:12:26.238Z,55.40
2022-12-15T03:14:53.567Z,58.85
2022-12-15T03:17:20.863Z,58.95
2022-12-15T03:19:49.670Z,56.28
2022-12-15T03:22:17.682Z,60.05
2022-12-15T03:24:44.978Z,55.83
2022-12-15T03:27:12.295Z,57.35
2022-12-15T03:29:39.717Z,57.47
2022-12-15T03:32:07.099Z,61.47
2022-12-15T03:34:34.470Z,59.33
2022-12-15T03:37:01.748Z,62.55
2022-12-15T03:39:29.110Z,58.05
2022-12-15T03:41:56.405Z,56.60
2022-12-15T03:44:23.736Z,61.40
2022-12-15T03:46:51.047Z,60.85
2022-12-15T03:49:18.373Z,66.53
2022-12-15T03:51:45.660Z,62.28
2022-12-15T03:54:13.987Z,61.05
2022-12-15T03:56:41.292Z,64.38
2022-12-15T03:59:08.602Z,64.43
2022-12-15T04:01:36.484Z,65.78
2022-12-15T04:04:04.219Z,66.40
2022-12-15T04:06:31.725Z,66.78
2022-12-15T04:08:59.102Z,66.78
2022-12-15T04:11:26.541Z,63.30
2022-12-15T04:13:56.476Z,66.43
2022-12-15T04:16:23.812Z,70.05
2022-12-15T04:19:11.094Z,64.30
2022-12-15T04:21:38.413Z,66.55
2022-12-15T04:24:24.639Z,67.47
2022-12-15T04:27:10.416Z,66.82
2022-12-15T04:29:56.234Z,65.38
2022-12-15T04:32:42.130Z,63.22
2022-12-15T04:35:28.976Z,68.18
2022-12-15T04:38:14.621Z,68.18
2022-12-15T04:41:00.371Z,70.63
2022-12-15T04:43:45.995Z,70.95
2022-12-15T04:46:31.749Z,68.85
2022-12-15T04:49:17.562Z,74.13
2022-12-15T04:52:03.350Z,72.88
2022-12-15T04:54:49.512Z,75.40
2022-12-15T04:57:35.414Z,68.70
2022-12-15T05:00:21.728Z,70.93
2022-12-15T05:03:07.536Z,66.93
2022-12-15T05:05:53.454Z,69.03
2022-12-15T05:08:39.418Z,73.28
2022-12-15T05:11:25.153Z,66.88
2022-12-15T05:14:10.962Z,68.72
2022-12-15T05:16:56.977Z,66.25
2022-12-15T05:19:42.910Z,69.03
2022-12-15T05:22:28.665Z,65.40
2022-12-15T05:25:14.572Z,71.25
2022-12-15T05:28:00.284Z,71.93
2022-12-15T05:30:46.136Z,78.10
2022-12-15T05:33:13.457Z,72.18
2022-12-15T05:35:40.845Z,72.90
2022-12-15T05:38:08.164Z,66.88
2022-12-15T05:40:35.502Z,68.80
2022-12-15T05:43:02.832Z,67.53
2022-12-15T05:45:30.117Z,66.57
2022-12-15T05:47:57.423Z,70.57
2022-12-15T05:50:24.804Z,69.50
2022-12-15T05:52:52.201Z,65.95
2022-12-15T05:55:19.975Z,68.95
2022-12-15T05:57:53.855Z,66.32
2022-12-15T06:00:21.598Z,67.80
2022-12-15T06:02:49.865Z,69.45
2022-12-15T06:05:17.745Z,65.20
2022-12-15T06:07:45.091Z,66.07
2022-12-15T06:10:12.927Z,67.75
2022-12-15T06:12:40.205Z,69.57
2022-12-15T06:15:08.003Z,71.28
2022-12-15T06:17:35.297Z,67.75
2022-12-15T06:20:02.822Z,69.97
2022-12-15T06:22:31.273Z,68.57
2022-12-15T06:24:58.600Z,71.35
2022-12-15T06:27:25.916Z,66.03
2022-12-15T06:29:53.359Z,67.78
2022-12-15T06:32:21.338Z,66.00
2022-12-15T06:34:49.551Z,72.82
2022-12-15T06:37:16.847Z,66.70
2022-12-15T06:39:44.190Z,69.70
2022-12-15T06:42:11.540Z,72.90
2022-12-15T06:44:38.840Z,72.30
2022-12-15T06:47:07.425Z,70.70
2022-12-15T06:49:34.759Z,66.40
2022-12-15T06:52:02.092Z,65.95
2022-12-15T06:54:29.482Z,70.75
2022-12-15T06:56:56.761Z,71.68
2022-12-15T06:59:24.051Z,79.43
2022-12-15T07:01:51.481Z,68.47
2022-12-15T07:04:18.963Z,76.70
2022-12-15T07:06:46.337Z,72.50
2022-12-15T07:09:16.038Z,72.07
2022-12-15T07:11:43.921Z,69.40
2022-12-15T07:14:11.241Z,72.68
2022-12-15T07:16:39.046Z,77.20
2022-12-15T07:19:06.488Z,73.47
2022-12-15T07:21:33.834Z,78.85
2022-12-15T07:24:02.149Z,72.65
2022-12-15T07:26:30.539Z,73.63
2022-12-15T07:28:57.865Z,70.80
2022-12-15T07:31:25.339Z,78.15
2022-12-15T07:33:54.420Z,83.32
2022-12-15T07:36:22.063Z,74.18
2022-12-15T07:38:50.083Z,74.38
2022-12-15T07:41:18.925Z,75.55
2022-12-15T07:43:47.622Z,74.68
2022-12-15T07:46:15.710Z,75.00
2022-12-15T07:48:43.148Z,73.85
2022-12-15T07:51:17.372Z,73.03
2022-12-15T07:53:47.541Z,73.47
2022-12-15T07:56:15.481Z,76.18
2022-12-15T07:58:42.965Z,77.75
2022-12-15T08:01:12.396Z,71.65
2022-12-15T08:03:40.806Z,73.75
2022-12-15T08:06:10.280Z,83.45
2022-12-15T08:08:37.955Z,77.43
2022-12-15T08:11:09.670Z,80.50
2022-12-15T08:16:24.757Z,76.55
2022-12-15T08:18:52.113Z,77.90
2022-12-15T08:21:19.516Z,74.65
2022-12-15T08:23:46.895Z,79.95
2022-12-15T08:26:15.982Z,77.25
2022-12-15T08:28:43.430Z,83.13
2022-12-15T08:31:18.340Z,74.80
2022-12-15T08:33:46.022Z,72.85
2022-12-15T08:36:14.376Z,74.22
2022-12-15T08:38:42.237Z,79.75
2022-12-15T08:41:17.527Z,77.32
2022-12-15T08:43:48.600Z,74.78
2022-12-15T08:46:17.772Z,71.43
2022-12-15T08:48:45.230Z,72.43
2022-12-15T08:51:12.660Z,76.47
2022-12-15T08:53:40.002Z,76.18
2022-12-15T08:56:09.618Z,137.57
2022-12-15T08:58:36.972Z,121.93
2022-12-15T09:01:06.357Z,176.88
2022-12-15T09:03:35.974Z,120.75
2022-12-15T09:06:04.778Z,137.25
2022-12-15T09:08:32.365Z,89.00
2022-12-15T09:10:59.765Z,83.80
2022-12-15T09:13:27.246Z,76.13
2022-12-15T09:16:13.997Z,128.88
2022-12-15T09:18:46.623Z,117.22
2022-12-15T09:21:14.161Z,187.23
2022-12-15T09:23:41.580Z,130.45
2022-12-15T09:26:10.847Z,167.13
2022-12-15T09:28:38.459Z,190.63
2022-12-15T09:31:16.769Z,84.45
2022-12-15T09:33:44.365Z,82.43
2022-12-15T09:36:13.194Z,77.20
2022-12-15T09:38:41.372Z,75.80
2022-12-15T09:41:15.428Z,82.10
2022-12-15T09:43:52.320Z,149.77
2022-12-15T09:46:28.349Z,215.05
2022-12-15T09:48:56.007Z,190.20
2022-12-15T09:51:29.753Z,363.75
2022-12-15T09:53:57.430Z,125.53
2022-12-15T09:56:31.251Z,79.88
2022-12-15T09:59:20.923Z,153.88
2022-12-15T10:02:10.174Z,126.30
2022-12-15T10:05:07.242Z,143.82
2022-12-15T10:07:39.634Z,134.77
2022-12-15T10:10:17.865Z,119.15
2022-12-15T10:12:57.676Z,185.57
2022-12-15T10:15:29.839Z,106.32
2022-12-15T10:18:04.810Z,124.32
2022-12-15T10:20:32.167Z,314.73
2022-12-15T10:23:03.097Z,191.32
2022-12-15T10:25:31.260Z,89.07
2022-12-15T10:28:07.835Z,78.90
2022-12-15T10:30:35.363Z,77.70
2022-12-15T10:33:22.999Z,84.47
2022-12-15T10:35:52.626Z,101.38
2022-12-15T10:38:32.055Z,100.20
2022-12-15T10:41:01.770Z,88.20
2022-12-15T10:43:43.793Z,73.28
2022-12-15T10:46:21.927Z,88.75
2022-12-15T10:48:54.552Z,81.88
2022-12-15T10:51:21.978Z,81.53
2022-12-15T10:54:09.735Z,91.88
2022-12-15T10:57:00.159Z,79.47
2022-12-15T10:59:38.453Z,94.18
2022-12-15T11:02:24.266Z,77.30
2022-12-15T11:05:05.732Z,84.20
2022-12-15T11:07:40.897Z,74.57
2022-12-15T11:10:23.420Z,84.95
2022-12-15T11:13:12.196Z,82.07
2022-12-15T11:15:50.772Z,82.72
2022-12-15T11:18:32.670Z,84.57
2022-12-15T11:21:12.091Z,79.85
2022-12-15T11:23:50.864Z,87.65
2022-12-15T11:26:45.514Z,82.30
2022-12-15T11:29:18.907Z,86.55
2022-12-15T11:31:48.652Z,83.10
2022-12-15T11:34:18.530Z,84.07
2022-12-15T11:37:10.777Z,88.32
2022-12-15T11:40:15.479Z,89.78
2022-12-15T11:43:18.482Z,128.77
2022-12-15T11:45:48.795Z,173.85
2022-12-15T11:48:18.073Z,115.25
2022-12-15T11:51:00.366Z,233.27
2022-12-15T11:53:34.837Z,185.70
2022-12-15T11:56:16.174Z,137.48
2022-12-15T11:58:56.440Z,107.47
2022-12-15T12:01:49.450Z,113.88
2022-12-15T12:04:30.982Z,147.45
2022-12-15T12:07:04.159Z,168.18
2022-12-15T12:09:55.552Z,231.23
2022-12-15T12:12:28.572Z,103.10
2022-12-15T12:14:58.712Z,173.40
2022-12-15T12:17:52.842Z,103.30
2022-12-15T12:20:22.387Z,122.35
2022-12-15T12:23:02.426Z,105.28
2022-12-15T12:25:29.751Z,127.88
2022-12-15T12:28:13.398Z,96.40
2022-12-15T12:30:45.979Z,193.27
2022-12-15T12:33:25.482Z,108.18
2022-12-15T12:36:16.318Z,137.63
2022-12-15T12:41:38.501Z,101.53
2022-12-15T12:44:32.433Z,106.70
2022-12-15T12:47:06.369Z,88.00
2022-12-15T12:49:45.872Z,90.90
2022-12-15T12:52:24.433Z,560.90
2022-12-15T12:55:20.967Z,196.57
2022-12-15T12:57:50.085Z,140.57
2022-12-15T13:00:28.494Z,165.57
2022-12-15T13:02:57.182Z,125.55
2022-12-15T13:05:33.992Z,97.50
2022-12-15T13:08:06.758Z,113.30
2022-12-15T13:10:34.944Z,80.78
2022-12-15T13:13:30.235Z,94.82
2022-12-15T13:16:11.539Z,81.57
2022-12-15T13:19:04.613Z,88.18
2022-12-15T13:21:44.346Z,90.25
2022-12-15T13:24:30.770Z,170.60
2022-12-15T13:27:15.198Z,217.77
2022-12-15T13:32:35.612Z,124.18
2022-12-15T13:35:16.769Z,128.20
2022-12-15T13:37:53.019Z,89.85
2022-12-15T13:40:23.513Z,83.85
2022-12-15T13:43:19.695Z,84.90
2022-12-15T13:45:50.989Z,87.93
2022-12-15T13:48:36.390Z,85.15
2022-12-15T13:51:06.417Z,88.85
2022-12-15T13:53:42.520Z,89.50
2022-12-15T13:56:12.868Z,92.30
2022-12-15T13:58:43.812Z,103.15
2022-12-15T14:01:42.260Z,111.00
2022-12-15T14:04:15.690Z,121.25
2022-12-15T14:06:57.144Z,74.47
2022-12-15T14:09:28.463Z,168.35
2022-12-15T14:11:55.795Z,112.95
2022-12-15T14:14:25.686Z,156.38
2022-12-15T14:17:03.336Z,157.75
2022-12-15T14:19:38.888Z,137.10
2022-12-15T14:22:29.449Z,158.48
2022-12-15T14:25:09.266Z,124.65
2022-12-15T14:27:36.645Z,110.53
2022-12-15T14:30:29.806Z,105.80
2022-12-15T14:33:03.372Z,94.20
2022-12-15T14:35:31.727Z,92.35
2022-12-15T14:38:00.640Z,112.68
2022-12-15T14:40:29.068Z,104.32
2022-12-15T14:42:56.706Z,357.13
2022-12-15T14:45:26.044Z,271.63
2022-12-15T14:48:30.584Z,196.23
2022-12-15T14:50:46.254Z,187.02
2022-12-15T14:53:17.827Z,132.35
2022-12-15T14:55:45.139Z,273.20
2022-12-15T14:58:35.197Z,198.85
2022-12-15T15:01:03.387Z,130.38
2022-12-15T15:03:12.826Z,91.10
2022-12-15T15:03:40.938Z,321.42
2022-12-15T15:06:11.352Z,345.15
2022-12-15T15:08:52.637Z,146.63
2022-12-15T15:11:35.478Z,115.22
2022-12-15T15:14:10.469Z,123.63
2022-12-15T15:16:37.848Z,107.53
2022-12-15T15:19:05.505Z,94.15
2022-12-15T15:21:36.598Z,91.45
2022-12-15T15:24:25.453Z,95.47
2022-12-15T15:26:53.309Z,98.75
2022-12-15T15:29:40.993Z,96.28
2022-12-15T15:32:16.701Z,92.70
2022-12-15T15:34:45.070Z,87.40
2022-12-15T15:37:18.560Z,90.78
2022-12-15T15:39:48.182Z,63.90
2022-12-15T15:42:15.526Z,97.93
2022-12-15T15:44:42.927Z,86.28
2022-12-15T15:47:25.079Z,82.57
2022-12-15T15:49:53.439Z,87.47
2022-12-15T15:52:21.974Z,89.35
2022-12-15T15:54:49.405Z,91.93
2022-12-15T15:57:17.256Z,97.35
2022-12-15T15:59:45.278Z,94.95
2022-12-15T16:02:13.819Z,89.57
2022-12-15T16:04:44.538Z,92.68
2022-12-15T16:07:25.618Z,97.22
2022-12-15T16:09:53.462Z,93.55
2022-12-15T16:12:25.254Z,88.88
2022-12-15T16:14:52.554Z,92.55
2022-12-15T16:17:20.091Z,91.10
2022-12-15T16:19:47.502Z,96.53
2022-12-15T16:22:19.544Z,101.60
2022-12-15T16:24:47.035Z,94.88
2022-12-15T16:27:14.789Z,100.88
2022-12-15T16:29:42.364Z,99.65
2022-12-15T16:32:10.665Z,101.63
2022-12-15T16:34:38.232Z,99.65
2022-12-15T16:37:05.671Z,100.25
2022-12-15T16:39:34.066Z,91.82
2022-12-15T16:42:01.611Z,97.60
2022-12-15T16:44:29.464Z,95.95
2022-12-15T16:46:57.489Z,97.57
2022-12-15T16:49:25.171Z,92.20
2022-12-15T16:51:53.527Z,96.93
2022-12-15T16:54:23.674Z,98.10
2022-12-15T16:56:52.922Z,101.85
2022-12-15T16:59:37.349Z,98.75
2022-12-15T17:04:59.084Z,96.03
2022-12-15T17:07:26.953Z,96.88
2022-12-15T17:09:54.296Z,97.90
2022-12-15T17:12:21.599Z,96.28
2022-12-15T17:14:48.922Z,102.03
2022-12-15T17:17:17.537Z,97.35
2022-12-15T17:20:11.702Z,100.30
2022-12-15T17:22:33.268Z,101.75
2022-12-15T17:25:00.709Z,99.18
2022-12-15T17:27:28.497Z,98.40
2022-12-15T17:29:56.335Z,100.22
2022-12-15T17:32:23.641Z,107.03
2022-12-15T17:34:51.065Z,112.43
2022-12-15T17:37:18.867Z,103.80
2022-12-15T17:39:51.131Z,106.50
2022-12-15T17:42:19.712Z,111.18
2022-12-15T17:44:47.885Z,107.68
2022-12-15T17:47:15.504Z,106.13
2022-12-15T17:49:42.984Z,108.35
2022-12-15T17:52:24.923Z,120.30
2022-12-15T17:54:52.292Z,114.43
2022-12-15T17:57:20.029Z,119.53
2022-12-15T17:59:47.709Z,122.95
2022-12-15T18:02:15.597Z,118.85
2022-12-15T18:04:43.429Z,124.28
2022-12-15T18:07:18.181Z,115.00
2022-12-15T18:09:45.621Z,126.63
2022-12-15T18:12:21.577Z,118.65
2022-12-15T18:14:49.166Z,122.63
2022-12-15T18:17:16.608Z,120.47
2022-12-15T18:19:43.894Z,124.55
2022-12-15T18:22:23.941Z,126.07
2022-12-15T18:24:52.081Z,145.70
2022-12-15T18:27:24.591Z,130.90
2022-12-15T18:29:52.069Z,122.63
2022-12-15T18:32:20.409Z,135.98
2022-12-15T18:34:47.733Z,132.95
2022-12-15T18:37:19.409Z,135.18
2022-12-15T18:39:46.913Z,132.75
2022-12-15T18:42:19.182Z,132.82
2022-12-15T18:44:50.690Z,137.50
2022-12-15T18:47:19.385Z,136.90
2022-12-15T18:49:46.781Z,134.88
2022-12-15T18:52:24.161Z,129.30
2022-12-15T18:54:52.613Z,133.82
2022-12-15T18:57:32.865Z,129.85
2022-12-15T19:00:13.508Z,139.75
2022-12-15T19:02:41.543Z,141.57
2022-12-15T19:05:27.663Z,137.98
2022-12-15T19:08:04.221Z,129.85
2022-12-15T19:10:33.262Z,138.38
2022-12-15T19:13:00.847Z,139.77
2022-12-15T19:15:28.279Z,134.68
2022-12-15T19:18:14.125Z,137.02
2022-12-15T19:20:59.795Z,142.05
2022-12-15T19:23:27.178Z,136.05
2022-12-15T19:25:54.538Z,152.35
2022-12-15T19:28:23.130Z,145.23
2022-12-15T19:30:50.935Z,146.50
2022-12-15T19:33:18.435Z,130.85
2022-12-15T19:35:47.593Z,138.55
2022-12-15T19:38:23.931Z,130.02
2022-12-15T19:40:53.422Z,133.20
2022-12-15T19:43:22.170Z,138.60
2022-12-15T19:45:49.942Z,134.00
2022-12-15T19:48:22.937Z,137.60
2022-12-15T19:50:52.104Z,136.27
2022-12-15T19:53:24.311Z,142.13
2022-12-15T19:55:55.922Z,134.20
2022-12-15T19:58:30.076Z,140.57
2022-12-15T20:03:26.181Z,124.45
2022-12-15T20:05:54.130Z,149.57
2022-12-15T20:08:23.567Z,134.23
2022-12-15T20:10:51.145Z,128.15
2022-12-15T20:13:18.506Z,124.45
2022-12-15T20:15:45.936Z,127.95
2022-12-15T20:18:13.486Z,125.90
2022-12-15T20:20:41.642Z,125.75
2022-12-15T20:23:27.254Z,124.55
2022-12-15T20:25:55.873Z,118.07
2022-12-15T20:28:25.260Z,120.63
2022-12-15T20:30:52.805Z,117.88
2022-12-15T20:33:20.253Z,113.82
2022-12-15T20:35:48.193Z,116.72
2022-12-15T20:38:24.620Z,121.55
2022-12-15T20:40:52.639Z,107.53
2022-12-15T20:43:21.014Z,104.03
2022-12-15T20:45:53.277Z,113.70
2022-12-15T20:48:25.213Z,113.43
2022-12-15T20:50:53.342Z,106.47
2022-12-15T20:53:22.626Z,99.30
2022-12-15T20:55:50.664Z,92.95
2022-12-15T20:58:18.191Z,95.18
2022-12-15T21:00:45.854Z,91.95
2022-12-15T21:03:27.474Z,85.15
2022-12-15T21:05:56.579Z,85.55
2022-12-15T21:08:29.607Z,88.50
2022-12-15T21:11:18.358Z,75.40
2022-12-15T21:13:46.146Z,78.65
2022-12-15T21:16:21.350Z,71.82
2022-12-15T21:19:18.558Z,73.57
2022-12-15T21:21:43.956Z,74.38
2022-12-15T21:24:16.266Z,73.90
2022-12-15T21:26:43.637Z,67.18
2022-12-15T21:29:15.577Z,68.18
2022-12-15T21:31:43.024Z,64.47
2022-12-15T21:34:10.597Z,67.43
2022-12-15T21:36:38.695Z,67.20
2022-12-15T21:39:07.742Z,68.68
2022-12-15T21:41:35.347Z,57.90
2022-12-15T21:44:02.664Z,63.83
2022-12-15T21:46:30.048Z,57.88
2022-12-15T21:49:17.384Z,57.30
2022-12-15T21:51:56.277Z,57.40
2022-12-15T21:54:31.371Z,58.15
2022-12-15T21:56:59.848Z,52.20
2022-12-15T21:59:29.576Z,54.05
2022-12-15T22:01:57.107Z,58.97
2022-12-15T22:04:26.879Z,51.28
2022-12-15T22:06:54.210Z,57.75
2022-12-15T22:09:21.822Z,54.33
2022-12-15T22:11:50.148Z,52.20
2022-12-15T22:14:27.389Z,55.40
2022-12-15T22:16:54.877Z,48.88
2022-12-15T22:19:22.452Z,51.30
2022-12-15T22:21:49.970Z,51.95
2022-12-15T22:24:17.276Z,55.92
2022-12-15T22:26:44.594Z,87.93
2022-12-15T22:29:15.610Z,71.32
2022-12-15T22:31:43.071Z,81.75
2022-12-15T22:34:14.672Z,58.20
2022-12-15T22:36:42.304Z,55.90
2022-12-15T22:39:11.134Z,51.78
2022-12-15T22:41:45.702Z,50.05
2022-12-15T22:44:25.451Z,49.10
2022-12-15T22:46:53.989Z,48.22
2022-12-15T22:49:23.965Z,52.67
2022-12-15T22:51:51.367Z,51.05
2022-12-15T22:54:19.896Z,51.88
2022-12-15T22:57:06.822Z,51.13
2022-12-15T22:59:42.405Z,51.50
2022-12-15T23:02:09.839Z,48.80
2022-12-15T23:04:37.171Z,47.75
2022-12-15T23:07:05.580Z,47.30
2022-12-15T23:09:32.948Z,49.20
2022-12-15T23:12:00.342Z,45.75
2022-12-15T23:14:46.583Z,44.80
2022-12-15T23:17:13.958Z,44.67
2022-12-15T23:19:44.993Z,44.35
2022-12-15T23:22:12.638Z,49.60
2022-12-15T23:24:39.960Z,51.58
2022-12-15T23:27:10.323Z,51.17
2022-12-15T23:29:37.800Z,51.05
2022-12-15T23:32:06.033Z,44.30
2022-12-15T23:34:33.350Z,47.20
2022-12-15T23:37:00.881Z,47.47
2022-12-15T23:39:28.360Z,47.83
2022-12-15T23:41:55.673Z,45.33
2022-12-15T23:44:23.035Z,47.90
2022-12-15T23:46:50.449Z,51.38
2022-12-15T23:49:17.904Z,44.40
2022-12-15T23:51:45.243Z,49.92
2022-12-15T23:54:12.622Z,49.42
2022-12-15T23:56:40.467Z,44.78
2022-12-15T23:59:07.869Z,47.72
